createdAt,value
2022-11-20T00:01:35.722Z,5.10
2022-11-20T00:04:02.833Z,5.00
2022-11-20T00:06:33.209Z,4.90
2022-11-20T00:09:03.372Z,4.90
2022-11-20T00:11:34.848Z,4.80
2022-11-20T00:14:03.303Z,4.90
2022-11-20T00:16:33.182Z,4.80
2022-11-20T00:19:00.226Z,4.90
2022-11-20T00:21:29.458Z,4.90
2022-11-20T00:23:58.031Z,4.90
2022-11-20T00:26:27.767Z,4.80
2022-11-20T00:28:58.464Z,4.80
2022-11-20T00:31:26.620Z,4.90
2022-11-20T00:33:56.401Z,4.90
2022-11-20T00:36:25.649Z,4.90
2022-11-20T00:38:53.912Z,4.90
2022-11-20T00:41:21.308Z,4.80
2022-11-20T00:43:48.461Z,4.80
2022-11-20T00:46:21.806Z,4.80
2022-11-20T00:48:51.480Z,4.90
2022-11-20T00:51:21.697Z,4.90
2022-11-20T00:53:48.969Z,4.80
2022-11-20T00:56:19.079Z,4.80
2022-11-20T00:58:47.998Z,4.80
2022-11-20T01:01:21.814Z,4.70
2022-11-20T01:03:52.185Z,4.70
2022-11-20T01:06:22.198Z,4.80
2022-11-20T01:08:50.633Z,4.70
2022-11-20T01:11:20.022Z,4.70
2022-11-20T01:13:49.614Z,4.80
2022-11-20T01:16:20.636Z,4.70
2022-11-20T01:19:00.466Z,4.60
2022-11-20T01:21:29.876Z,4.60
2022-11-20T01:24:00.725Z,4.60
2022-11-20T01:26:30.691Z,4.60
2022-11-20T01:28:58.544Z,4.50
2022-11-20T01:31:30.111Z,4.50
2022-11-20T01:34:00.018Z,4.50
2022-11-20T01:36:30.469Z,4.40
2022-11-20T01:38:59.711Z,4.50
2022-11-20T01:41:55.404Z,4.50
2022-11-20T01:44:52.583Z,4.60
2022-11-20T01:47:33.004Z,4.60
2022-11-20T01:53:02.611Z,4.50
2022-11-20T01:55:33.369Z,4.70
2022-11-20T01:58:07.154Z,4.70
2022-11-20T02:00:40.183Z,4.70
2022-11-20T02:03:13.332Z,4.70
2022-11-20T02:05:46.994Z,4.70
2022-11-20T02:08:16.717Z,4.70
2022-11-20T02:10:43.808Z,4.50
2022-11-20T02:13:39.009Z,4.50
2022-11-20T02:16:10.554Z,4.50
2022-11-20T02:18:42.161Z,4.50
2022-11-20T02:21:30.588Z,4.50
2022-11-20T02:24:14.715Z,4.60
2022-11-20T02:26:48.432Z,4.50
2022-11-20T02:29:20.389Z,4.60
2022-11-20T02:31:56.154Z,4.70
2022-11-20T02:34:26.159Z,4.70
2022-11-20T02:37:00.223Z,4.70
2022-11-20T02:39:29.396Z,4.70
2022-11-20T02:42:00.622Z,4.60
2022-11-20T02:44:27.705Z,4.60
2022-11-20T02:46:54.639Z,4.60
2022-11-20T02:49:21.935Z,4.70
2022-11-20T02:51:49.175Z,4.80
2022-11-20T02:54:16.146Z,4.80
2022-11-20T02:56:47.580Z,4.80
2022-11-20T02:59:14.635Z,4.80
2022-11-20T03:01:56.665Z,4.80
2022-11-20T03:04:23.739Z,4.80
2022-11-20T03:06:50.613Z,4.80
2022-11-20T03:09:20.742Z,4.70
2022-11-20T03:11:52.165Z,4.70
2022-11-20T03:14:19.375Z,4.70
2022-11-20T03:16:46.279Z,4.80
2022-11-20T03:19:16.254Z,4.90
2022-11-20T03:21:43.289Z,4.80
2022-11-20T03:24:16.400Z,4.80
2022-11-20T03:26:43.570Z,4.80
2022-11-20T03:29:14.869Z,4.80
2022-11-20T03:31:48.030Z,4.70
2022-11-20T03:34:14.918Z,4.80
2022-11-20T03:36:43.619Z,4.90
2022-11-20T03:39:11.234Z,4.80
2022-11-20T03:41:43.091Z,4.90
2022-11-20T03:44:14.607Z,4.90
2022-11-20T03:46:44.437Z,4.90
2022-11-20T03:49:11.386Z,4.80
2022-11-20T03:51:44.386Z,4.80
2022-11-20T03:54:17.349Z,4.90
2022-11-20T03:56:44.287Z,4.90
2022-11-20T03:59:15.775Z,4.90
2022-11-20T04:01:45.465Z,4.90
2022-11-20T04:04:25.447Z,4.80
2022-11-20T04:06:55.343Z,4.70
2022-11-20T04:09:22.652Z,4.80
2022-11-20T04:11:49.918Z,4.90
2022-11-20T04:14:18.711Z,5.00
2022-11-20T04:16:48.905Z,5.00
2022-11-20T04:19:19.670Z,4.90
2022-11-20T04:21:46.783Z,4.90
2022-11-20T04:24:23.147Z,4.90
2022-11-20T04:26:50.083Z,4.80
2022-11-20T04:29:18.502Z,4.80
2022-11-20T04:31:54.140Z,4.70
2022-11-20T04:34:26.282Z,4.80
2022-11-20T04:36:53.195Z,4.90
2022-11-20T04:39:20.508Z,4.90
2022-11-20T04:42:15.477Z,4.90
2022-11-20T04:44:43.881Z,5.00
2022-11-20T04:47:13.754Z,5.00
2022-11-20T04:49:43.914Z,4.90
2022-11-20T04:52:25.906Z,4.90
2022-11-20T04:54:55.588Z,4.90
2022-11-20T04:57:28.631Z,4.90
2022-11-20T05:00:02.244Z,5.00
2022-11-20T05:02:32.358Z,5.00
2022-11-20T05:05:06.224Z,5.00
2022-11-20T05:07:35.978Z,5.00
2022-11-20T05:10:03.208Z,4.80
2022-11-20T05:12:30.438Z,4.90
2022-11-20T05:15:01.615Z,4.90
2022-11-20T05:17:28.806Z,4.80
2022-11-20T05:19:58.540Z,4.80
2022-11-20T05:22:25.434Z,4.70
2022-11-20T05:24:52.541Z,4.70
2022-11-20T05:27:19.487Z,4.80
2022-11-20T05:29:46.426Z,4.80
2022-11-20T05:32:14.886Z,4.90
2022-11-20T05:34:41.967Z,4.90
2022-11-20T05:37:08.835Z,4.90
2022-11-20T05:39:35.908Z,4.90
2022-11-20T05:42:21.586Z,4.90
2022-11-20T05:44:54.495Z,5.00
2022-11-20T05:47:26.275Z,4.90
2022-11-20T05:49:53.560Z,4.90
2022-11-20T05:52:30.421Z,4.80
2022-11-20T05:55:04.169Z,4.80
2022-11-20T05:57:34.705Z,4.80
2022-11-20T06:00:11.325Z,4.80
2022-11-20T06:02:39.856Z,4.80
2022-11-20T06:05:08.057Z,4.80
2022-11-20T06:07:38.058Z,4.80
2022-11-20T06:10:05.800Z,4.90
2022-11-20T06:12:36.078Z,4.90
2022-11-20T06:15:03.233Z,4.80
2022-11-20T06:17:40.704Z,4.90
2022-11-20T06:20:09.460Z,4.80
2022-11-20T06:22:36.369Z,4.80
2022-11-20T06:25:03.650Z,4.80
2022-11-20T06:27:36.568Z,4.80
2022-11-20T06:30:17.151Z,4.70
2022-11-20T06:32:48.261Z,4.80
2022-11-20T06:35:15.476Z,4.70
2022-11-20T06:38:00.560Z,4.80
2022-11-20T06:40:27.477Z,4.80
2022-11-20T06:43:03.501Z,4.80
2022-11-20T06:45:36.337Z,4.80
2022-11-20T06:48:05.326Z,4.90
2022-11-20T06:50:44.450Z,4.90
2022-11-20T06:53:14.558Z,4.90
2022-11-20T06:55:45.191Z,4.90
2022-11-20T06:58:12.473Z,4.90
2022-11-20T07:00:39.554Z,4.90
2022-11-20T07:03:09.957Z,4.80
2022-11-20T07:05:37.898Z,4.90
2022-11-20T07:08:06.095Z,5.00
2022-11-20T07:10:33.496Z,5.10
2022-11-20T07:13:00.615Z,5.00
2022-11-20T07:15:28.124Z,5.00
2022-11-20T07:17:54.997Z,5.00
2022-11-20T07:20:23.281Z,5.00
2022-11-20T07:22:55.065Z,5.00
2022-11-20T07:25:22.060Z,5.00
2022-11-20T07:27:49.395Z,5.00
2022-11-20T07:30:16.543Z,5.00
2022-11-20T07:32:43.629Z,5.10
2022-11-20T07:35:10.491Z,5.10
2022-11-20T07:37:51.272Z,5.10
2022-11-20T07:40:24.659Z,5.10
2022-11-20T07:42:53.128Z,5.00
2022-11-20T07:45:29.256Z,4.90
2022-11-20T07:47:56.174Z,4.90
2022-11-20T07:50:23.094Z,5.00
2022-11-20T07:52:51.546Z,5.00
2022-11-20T07:55:24.451Z,5.10
2022-11-20T07:58:03.445Z,5.10
2022-11-20T08:00:30.540Z,5.10
2022-11-20T08:03:06.830Z,5.00
2022-11-20T08:05:34.260Z,5.00
2022-11-20T08:08:08.780Z,5.10
2022-11-20T08:10:41.659Z,5.10
2022-11-20T08:13:29.254Z,5.20
2022-11-20T08:15:58.928Z,5.20
2022-11-20T08:18:31.839Z,5.30
2022-11-20T08:21:04.170Z,5.30
2022-11-20T08:23:32.741Z,5.40
2022-11-20T08:25:59.688Z,5.50
2022-11-20T08:28:26.610Z,5.50
2022-11-20T08:31:00.380Z,5.50
2022-11-20T08:33:36.334Z,5.50
2022-11-20T08:36:17.194Z,5.60
2022-11-20T08:38:49.004Z,5.70
2022-11-20T08:41:29.365Z,5.60
2022-11-20T08:43:59.477Z,5.60
2022-11-20T08:46:28.237Z,5.70
2022-11-20T08:49:02.940Z,5.70
2022-11-20T08:51:35.803Z,5.70
2022-11-20T08:54:05.485Z,5.80
2022-11-20T08:56:33.121Z,5.80
2022-11-20T08:59:37.208Z,5.70
2022-11-20T09:01:53.243Z,5.70
2022-11-20T09:04:20.501Z,5.80
2022-11-20T09:06:51.770Z,5.80
2022-11-20T09:09:21.154Z,5.70
2022-11-20T09:11:48.379Z,5.70
2022-11-20T09:14:15.348Z,5.60
2022-11-20T09:16:42.301Z,5.70
2022-11-20T09:22:00.932Z,5.80
2022-11-20T09:24:29.293Z,5.90
2022-11-20T09:26:59.200Z,5.80
2022-11-20T09:29:32.805Z,5.80
2022-11-20T09:31:59.724Z,5.70
2022-11-20T09:34:26.697Z,5.70
2022-11-20T09:36:53.635Z,5.80
2022-11-20T09:39:23.981Z,5.80
2022-11-20T09:42:18.347Z,5.90
2022-11-20T09:45:20.252Z,6.00
2022-11-20T09:48:12.122Z,6.00
2022-11-20T09:50:47.522Z,6.10
2022-11-20T09:53:35.937Z,6.20
2022-11-20T09:56:05.753Z,6.20
2022-11-20T09:58:40.604Z,6.20
2022-11-20T10:01:14.589Z,6.10
2022-11-20T10:03:53.643Z,6.10
2022-11-20T10:06:30.715Z,6.10
2022-11-20T10:09:14.331Z,6.10
2022-11-20T10:11:52.850Z,6.10
2022-11-20T10:14:35.653Z,6.00
2022-11-20T10:17:18.225Z,6.10
2022-11-20T10:19:57.675Z,6.00
2022-11-20T10:22:52.217Z,6.00
2022-11-20T10:25:39.716Z,5.90
2022-11-20T10:28:30.591Z,5.90
2022-11-20T10:31:03.808Z,6.00
2022-11-20T10:33:49.942Z,6.10
2022-11-20T10:36:26.451Z,6.10
2022-11-20T10:38:59.635Z,6.10
2022-11-20T10:41:35.945Z,6.10
2022-11-20T10:44:12.904Z,6.10
2022-11-20T10:46:45.406Z,6.10
2022-11-20T10:49:15.843Z,6.10
2022-11-20T10:52:02.029Z,6.10
2022-11-20T10:54:40.495Z,6.20
2022-11-20T10:57:21.042Z,6.20
2022-11-20T11:00:05.685Z,6.20
2022-11-20T11:02:41.345Z,6.30
2022-11-20T11:05:35.714Z,6.10
2022-11-20T11:08:08.859Z,5.90
2022-11-20T11:10:44.407Z,6.10
2022-11-20T11:13:25.820Z,6.10
2022-11-20T11:16:05.592Z,6.10
2022-11-20T11:18:35.788Z,6.10
2022-11-20T11:21:06.493Z,6.10
2022-11-20T11:23:42.242Z,6.20
2022-11-20T11:26:22.241Z,6.30
2022-11-20T11:28:59.972Z,6.30
2022-11-20T11:31:39.104Z,6.40
2022-11-20T11:34:11.483Z,6.30
2022-11-20T11:36:39.389Z,6.30
2022-11-20T11:39:17.357Z,6.40
2022-11-20T11:41:44.994Z,6.50
2022-11-20T11:44:38.555Z,6.50
2022-11-20T11:47:11.770Z,6.50
2022-11-20T11:49:40.168Z,6.70
2022-11-20T11:52:15.910Z,6.70
2022-11-20T11:54:49.607Z,6.70
2022-11-20T11:57:33.337Z,6.80
2022-11-20T12:00:07.183Z,6.90
2022-11-20T12:02:46.090Z,6.90
2022-11-20T12:05:21.994Z,6.90
2022-11-20T12:07:52.656Z,6.90
2022-11-20T12:10:36.871Z,6.90
2022-11-20T12:13:19.148Z,7.00
2022-11-20T12:15:48.411Z,7.20
2022-11-20T12:18:19.708Z,7.20
2022-11-20T12:21:04.065Z,7.10
2022-11-20T12:23:41.154Z,7.00
2022-11-20T12:26:16.557Z,7.00
2022-11-20T12:29:01.810Z,6.90
2022-11-20T12:31:52.668Z,6.90
2022-11-20T12:34:46.379Z,6.80
2022-11-20T12:37:43.619Z,6.80
2022-11-20T12:40:40.674Z,6.80
2022-11-20T12:43:37.125Z,6.80
2022-11-20T12:46:31.396Z,6.90
2022-11-20T12:49:24.572Z,6.90
2022-11-20T12:52:28.247Z,6.90
2022-11-20T12:55:18.555Z,6.90
2022-11-20T12:57:55.487Z,7.00
2022-11-20T13:00:34.393Z,7.00
2022-11-20T13:03:40.276Z,7.00
2022-11-20T13:06:18.261Z,6.90
2022-11-20T13:08:54.403Z,6.90
2022-11-20T13:11:34.748Z,6.90
2022-11-20T13:14:30.467Z,6.90
2022-11-20T13:17:07.014Z,7.00
2022-11-20T13:19:34.976Z,7.00
2022-11-20T13:22:02.121Z,7.10
2022-11-20T13:24:52.923Z,7.20
2022-11-20T13:27:23.985Z,7.20
2022-11-20T13:30:04.321Z,7.20
2022-11-20T13:32:33.130Z,7.10
2022-11-20T13:35:02.738Z,7.10
2022-11-20T13:37:35.059Z,7.10
2022-11-20T13:40:23.395Z,7.00
2022-11-20T13:43:02.622Z,7.10
2022-11-20T13:45:32.569Z,7.10
2022-11-20T13:48:23.551Z,7.00
2022-11-20T13:51:16.357Z,6.90
2022-11-20T13:54:27.306Z,6.80
2022-11-20T13:57:12.555Z,6.80
2022-11-20T13:59:58.153Z,7.00
2022-11-20T14:02:36.318Z,7.10
2022-11-20T14:05:18.920Z,7.10
2022-11-20T14:07:46.493Z,7.10
2022-11-20T14:10:31.341Z,7.10
2022-11-20T14:12:59.710Z,7.10
2022-11-20T14:15:44.824Z,7.00
2022-11-20T14:18:25.229Z,7.00
2022-11-20T14:20:52.195Z,7.00
2022-11-20T14:23:30.036Z,7.00
2022-11-20T14:26:00.561Z,7.00
2022-11-20T14:28:30.889Z,7.10
2022-11-20T14:30:59.504Z,7.10
2022-11-20T14:33:29.174Z,7.10
2022-11-20T14:35:59.925Z,7.10
2022-11-20T14:38:30.079Z,7.10
2022-11-20T14:41:18.321Z,7.10
2022-11-20T14:43:48.362Z,7.10
2022-11-20T14:46:16.880Z,7.10
2022-11-20T14:48:47.629Z,7.00
2022-11-20T14:51:29.417Z,7.00
2022-11-20T14:54:13.082Z,7.00
2022-11-20T14:56:40.209Z,7.00
2022-11-20T14:59:11.011Z,7.10
2022-11-20T15:01:39.627Z,7.10
2022-11-20T15:04:11.000Z,7.10
2022-11-20T15:06:39.218Z,7.00
2022-11-20T15:09:14.752Z,7.10
2022-11-20T15:11:55.967Z,7.10
2022-11-20T15:14:26.924Z,7.10
2022-11-20T15:17:02.806Z,7.00
2022-11-20T15:19:30.204Z,7.00
2022-11-20T15:21:57.313Z,7.10
2022-11-20T15:24:27.052Z,7.10
2022-11-20T15:27:00.975Z,7.10
2022-11-20T15:29:30.958Z,7.10
2022-11-20T15:31:59.228Z,7.00
2022-11-20T15:34:29.689Z,7.00
2022-11-20T15:36:59.420Z,6.90
2022-11-20T15:39:26.655Z,6.90
2022-11-20T15:41:53.766Z,6.90
2022-11-20T15:44:21.258Z,7.00
2022-11-20T15:46:48.661Z,7.00
2022-11-20T15:49:20.118Z,6.90
2022-11-20T15:51:50.173Z,6.90
2022-11-20T15:54:23.305Z,6.80
2022-11-20T15:56:56.330Z,6.80
2022-11-20T15:59:26.270Z,6.90
2022-11-20T16:01:53.258Z,6.90
2022-11-20T16:04:21.989Z,6.90
2022-11-20T16:06:49.256Z,7.00
2022-11-20T16:09:16.391Z,7.00
2022-11-20T16:11:46.447Z,7.00
2022-11-20T16:14:43.716Z,7.00
2022-11-20T16:17:14.492Z,7.00
2022-11-20T16:19:45.442Z,6.90
2022-11-20T16:22:19.524Z,6.90
2022-11-20T16:24:55.917Z,6.90
2022-11-20T16:27:23.157Z,7.00
2022-11-20T16:29:50.954Z,7.00
2022-11-20T16:32:24.379Z,7.00
2022-11-20T16:34:55.059Z,7.10
2022-11-20T16:37:25.013Z,7.10
2022-11-20T16:39:58.204Z,7.00
2022-11-20T16:42:28.283Z,6.90
2022-11-20T16:44:55.344Z,7.10
2022-11-20T16:47:22.520Z,7.10
2022-11-20T16:49:49.455Z,7.20
2022-11-20T16:52:20.878Z,7.10
2022-11-20T16:54:48.029Z,7.10
2022-11-20T16:57:18.023Z,7.20
2022-11-20T16:59:45.282Z,7.10
2022-11-20T17:02:12.324Z,7.10
2022-11-20T17:04:48.660Z,7.10
2022-11-20T17:07:20.159Z,7.10
2022-11-20T17:09:50.156Z,7.20
2022-11-20T17:12:26.186Z,7.10
2022-11-20T17:14:58.421Z,7.10
2022-11-20T17:17:25.386Z,7.00
2022-11-20T17:19:52.322Z,6.90
2022-11-20T17:22:20.617Z,7.00
2022-11-20T17:24:53.546Z,7.10
2022-11-20T17:27:25.742Z,7.10
2022-11-20T17:29:54.980Z,7.00
2022-11-20T17:32:23.081Z,7.00
2022-11-20T17:34:52.441Z,7.10
2022-11-20T17:37:28.215Z,7.10
2022-11-20T17:40:01.120Z,7.20
2022-11-20T17:42:36.700Z,7.20
2022-11-20T17:45:05.301Z,7.20
2022-11-20T17:47:36.640Z,7.10
2022-11-20T17:50:04.502Z,7.10
2022-11-20T17:52:32.860Z,7.10
2022-11-20T17:55:02.785Z,7.00
2022-11-20T17:57:51.534Z,7.10
2022-11-20T18:00:22.631Z,7.10
2022-11-20T18:02:55.514Z,7.10
2022-11-20T18:05:26.360Z,7.10
2022-11-20T18:07:57.774Z,7.10
2022-11-20T18:10:29.313Z,7.10
2022-11-20T18:12:56.393Z,7.10
2022-11-20T18:15:23.364Z,7.10
2022-11-20T18:17:50.512Z,7.20
2022-11-20T18:20:29.368Z,7.20
2022-11-20T18:22:58.769Z,7.10
2022-11-20T18:25:25.740Z,7.00
2022-11-20T18:27:52.629Z,7.10
2022-11-20T18:30:20.053Z,7.20
2022-11-20T18:32:46.953Z,7.20
2022-11-20T18:35:14.128Z,7.20
2022-11-20T18:37:41.427Z,7.20
2022-11-20T18:40:14.026Z,7.20
2022-11-20T18:43:01.736Z,7.10
2022-11-20T18:45:31.734Z,7.20
2022-11-20T18:47:58.670Z,7.20
2022-11-20T18:50:25.699Z,7.20
2022-11-20T18:52:52.711Z,7.30
2022-11-20T18:55:24.303Z,7.40
2022-11-20T18:58:00.601Z,7.40
2022-11-20T19:00:34.018Z,7.40
2022-11-20T19:03:01.024Z,7.40
2022-11-20T19:05:40.109Z,7.40
2022-11-20T19:08:07.074Z,7.40
2022-11-20T19:10:37.781Z,7.40
2022-11-20T19:13:04.868Z,7.50
2022-11-20T19:15:36.016Z,7.50
2022-11-20T19:18:03.095Z,7.50
2022-11-20T19:20:35.276Z,7.50
2022-11-20T19:23:08.505Z,7.40
2022-11-20T19:25:41.856Z,7.50
2022-11-20T19:28:08.798Z,7.50
2022-11-20T19:30:35.778Z,7.50
2022-11-20T19:33:02.999Z,7.50
2022-11-20T19:35:29.976Z,7.50
2022-11-20T19:38:04.240Z,7.50
2022-11-20T19:40:39.739Z,7.50
2022-11-20T19:43:06.734Z,7.50
2022-11-20T19:45:33.610Z,7.50
2022-11-20T19:48:07.834Z,7.50
2022-11-20T19:50:38.440Z,7.50
2022-11-20T19:53:07.272Z,7.50
2022-11-20T19:56:02.847Z,7.50
2022-11-20T19:58:30.569Z,7.50
2022-11-20T20:00:57.817Z,7.50
2022-11-20T20:03:27.572Z,7.50
2022-11-20T20:05:54.487Z,7.50
2022-11-20T20:08:21.406Z,7.40
2022-11-20T20:10:49.648Z,7.40
2022-11-20T20:13:19.498Z,7.40
2022-11-20T20:15:46.409Z,7.40
2022-11-20T20:18:13.339Z,7.40
2022-11-20T20:20:40.319Z,7.30
2022-11-20T20:23:07.759Z,7.30
2022-11-20T20:25:38.237Z,7.30
2022-11-20T20:28:06.818Z,7.30
2022-11-20T20:30:35.690Z,7.30
2022-11-20T20:33:02.724Z,7.30
2022-11-20T20:35:29.723Z,7.30
2022-11-20T20:37:56.766Z,7.20
2022-11-20T20:40:26.465Z,7.20
2022-11-20T20:42:53.457Z,7.30
2022-11-20T20:45:22.006Z,7.30
2022-11-20T20:47:49.068Z,7.20
2022-11-20T20:50:16.238Z,7.30
2022-11-20T20:52:43.549Z,7.20
2022-11-20T20:55:11.413Z,7.20
2022-11-20T20:57:38.352Z,7.20
2022-11-20T21:00:15.638Z,7.20
2022-11-20T21:02:46.175Z,7.20
2022-11-20T21:05:16.506Z,7.20
2022-11-20T21:08:02.273Z,7.20
2022-11-20T21:10:41.621Z,7.20
2022-11-20T21:13:17.741Z,7.10
2022-11-20T21:15:48.072Z,7.10
2022-11-20T21:18:18.516Z,7.10
2022-11-20T21:21:05.592Z,7.00
2022-11-20T21:23:32.642Z,7.10
2022-11-20T21:26:02.356Z,7.10
2022-11-20T21:28:29.365Z,7.10
2022-11-20T21:31:07.665Z,7.00
2022-11-20T21:33:49.136Z,7.10
2022-11-20T21:36:27.816Z,7.10
2022-11-20T21:38:58.828Z,7.10
2022-11-20T21:41:28.866Z,7.20
2022-11-20T21:44:29.728Z,7.20
2022-11-20T21:46:46.289Z,7.20
2022-11-20T21:49:15.208Z,7.20
2022-11-20T21:51:44.360Z,7.30
2022-11-20T21:54:14.468Z,7.20
2022-11-20T21:56:46.646Z,7.20
2022-11-20T21:59:13.926Z,7.20
2022-11-20T22:01:44.003Z,7.20
2022-11-20T22:04:15.554Z,7.30
2022-11-20T22:06:42.661Z,7.20
2022-11-20T22:09:10.364Z,7.30
2022-11-20T22:11:40.889Z,7.30
2022-11-20T22:14:23.988Z,7.30
2022-11-20T22:16:53.558Z,7.30
2022-11-20T22:19:23.491Z,7.40
2022-11-20T22:21:53.390Z,7.40
2022-11-20T22:24:22.999Z,7.40
2022-11-20T22:26:51.598Z,7.40
2022-11-20T22:29:21.241Z,7.40
2022-11-20T22:31:48.523Z,7.50
2022-11-20T22:34:15.535Z,7.50
2022-11-20T22:36:53.086Z,7.40
2022-11-20T22:39:22.839Z,7.50
2022-11-20T22:41:49.950Z,7.50
2022-11-20T22:44:19.253Z,7.50
2022-11-20T22:46:46.342Z,7.50
2022-11-20T22:49:14.425Z,7.50
2022-11-20T22:51:47.492Z,7.50
2022-11-20T22:54:15.882Z,7.50
2022-11-20T22:56:43.028Z,7.40
2022-11-20T22:59:10.271Z,7.50
2022-11-20T23:01:39.218Z,7.50
2022-11-20T23:04:10.636Z,7.40
2022-11-20T23:06:38.265Z,7.40
2022-11-20T23:09:07.636Z,7.40
2022-11-20T23:11:36.745Z,7.40
2022-11-20T23:14:06.269Z,7.40
2022-11-20T23:16:34.387Z,7.40
2022-11-20T23:19:04.265Z,7.40
2022-11-20T23:21:31.916Z,7.50
2022-11-20T23:23:59.995Z,7.40
2022-11-20T23:26:30.639Z,7.40
2022-11-20T23:29:00.083Z,7.40
2022-11-20T23:31:32.205Z,7.50
2022-11-20T23:33:59.570Z,7.40
2022-11-20T23:36:26.662Z,7.40
2022-11-20T23:38:53.768Z,7.40
2022-11-20T23:41:20.741Z,7.40
2022-11-20T23:43:47.764Z,7.30
2022-11-20T23:46:16.994Z,7.30
2022-11-20T23:48:45.246Z,7.30
2022-11-20T23:51:13.532Z,7.30
2022-11-20T23:53:40.669Z,7.30
2022-11-20T23:56:07.769Z,7.30
2022-11-20T23:58:36.950Z,7.30
